Time;durP1;ratioP1;P1;durP2;ratioP2;P2;SDS_P1;SDS_P2;PMS_P1;PMS_P2;Temp;Humidity;BMP_temperature;BMP_pressure;BME280_temperature;BME280_humidity;BME280_pressure;Samples;Min_cycle;Max_cycle;Signal;HPM_P1;HPM_P2
2022/08/27 00:02:04;;;;;;;;;;;;;;;23.20;53.33;100620.69;4966058;28;6828;-74
2022/08/27 00:04:30;;;;;;;;;;;;;;;23.20;53.63;100624.16;4985142;28;6994;-74
2022/08/27 00:06:56;;;;;;;;;;;;;;;23.20;54.05;100621.53;4953357;28;6957;-75
2022/08/27 00:09:22;;;;;;;;;;;;;;;23.21;53.76;100618.06;4984511;28;7398;-75
2022/08/27 00:11:48;;;;;;;;;;;;;;;23.21;53.34;100620.66;4953537;28;7804;-75
2022/08/27 00:14:14;;;;;;;;;;;;;;;23.21;53.57;100607.59;4958943;28;6780;-75
2022/08/27 00:16:41;;;;;;;;;;;;;;;23.19;53.65;100604.13;4986003;28;8492;-75
2022/08/27 00:19:07;;;;;;;;;;;;;;;23.17;53.30;100608.50;4984798;28;8436;-75
2022/08/27 00:21:33;;;;;;;;;;;;;;;23.15;53.29;100597.16;4951522;28;7125;-75
2022/08/27 00:24:00;;;;;;;;;;;;;;;23.15;53.54;100605.00;4955003;28;6953;-75
2022/08/27 00:26:25;;;;;;;;;;;;;;;23.12;53.09;100600.66;4950519;28;6812;-75
2022/08/27 00:28:52;;;;;;;;;;;;;;;23.11;53.53;100611.09;4959563;28;6984;-75
2022/08/27 00:31:18;;;;;;;;;;;;;;;23.11;53.41;100603.25;4956463;28;6857;-75
2022/08/27 00:33:43;;;;;;;;;;;;;;;23.12;53.11;100600.66;4960125;28;7145;-75
2022/08/27 00:36:11;;;;;;;;;;;;;;;23.11;53.17;100598.91;4959506;28;7306;-75
2022/08/27 00:38:39;;;;;;;;;;;;;;;23.11;53.55;100605.88;4938266;28;6958;-75
2022/08/27 00:41:10;;;;;;;;;;;;;;;23.10;53.10;100596.28;4950054;28;7034;-75
2022/08/27 00:43:56;;;;;;;;;;;;;;;23.07;53.13;100599.75;4955300;28;7037;-75
2022/08/27 00:46:40;;;;;;;;;;;;;;;23.05;52.78;100600.66;4953974;28;6804;-74
2022/08/27 00:49:17;;;;;;;;;;;;;;;23.01;52.80;100599.78;4958507;28;8590;-74
2022/08/27 00:51:51;;;;;;;;;;;;;;;23.01;53.21;100600.66;4968083;28;6947;-75
2022/08/27 00:54:18;;;;;;;;;;;;;;;23.01;53.09;100605.00;4961644;28;9197;-75
2022/08/27 00:56:45;;;;;;;;;;;;;;;23.01;52.79;100599.78;4958932;28;6816;-75
2022/08/27 00:59:15;;;;;;;;;;;;;;;23.01;52.39;100597.19;4988238;28;6873;-76
2022/08/27 01:04:32;;;;;;;;;;;;;;;22.99;52.96;100601.53;4982178;28;6804;-75
2022/08/27 01:06:59;;;;;;;;;;;;;;;22.99;52.96;100596.31;4974197;28;6816;-75
2022/08/27 01:09:26;;;;;;;;;;;;;;;22.96;52.94;100596.28;4957425;28;6944;-75
2022/08/27 01:11:56;;;;;;;;;;;;;;;22.94;52.83;100587.59;4943535;28;6851;-75
2022/08/27 01:14:23;;;;;;;;;;;;;;;22.95;53.14;100590.22;4973720;28;6995;-75
2022/08/27 01:16:54;;;;;;;;;;;;;;;22.97;52.53;100593.69;4989006;28;6931;-75
2022/08/27 01:19:34;;;;;;;;;;;;;;;22.99;52.41;100591.09;4989735;28;7007;-75
2022/08/27 01:22:53;;;;;;;;;;;;;;;22.99;52.43;100593.69;4972299;28;7275;-75
2022/08/27 01:25:22;;;;;;;;;;;;;;;22.95;52.64;100589.31;4969669;28;7272;-75
2022/08/27 01:27:49;;;;;;;;;;;;;;;22.97;52.62;100587.56;4960872;28;6783;-75
2022/08/27 01:30:19;;;;;;;;;;;;;;;22.96;53.30;100589.34;4972547;28;6926;-75
2022/08/27 01:32:46;;;;;;;;;;;;;;;22.97;53.23;100583.22;4962045;28;6820;-75
2022/08/27 01:35:15;;;;;;;;;;;;;;;22.98;53.12;100584.97;4961922;28;6792;-75
2022/08/27 01:37:45;;;;;;;;;;;;;;;23.00;53.12;100592.81;4959522;28;7441;-75
2022/08/27 01:40:12;;;;;;;;;;;;;;;22.99;53.08;100586.72;4958362;28;7682;-75
2022/08/27 01:42:49;;;;;;;;;;;;;;;22.99;53.54;100586.72;4942856;28;7176;-75
2022/08/27 01:45:25;;;;;;;;;;;;;;;23.01;53.06;100594.56;4963389;28;7062;-75
2022/08/27 01:47:51;;;;;;;;;;;;;;;23.00;53.38;100595.44;4959011;28;7263;-75
2022/08/27 01:50:26;;;;;;;;;;;;;;;22.98;53.26;100586.69;4962123;28;7160;-75
2022/08/27 01:52:54;;;;;;;;;;;;;;;22.97;53.20;100584.97;4957076;28;6816;-75
2022/08/27 01:55:25;;;;;;;;;;;;;;;22.96;53.37;100585.84;4956520;28;7015;-75
2022/08/27 01:57:53;;;;;;;;;;;;;;;22.93;52.98;100586.69;4993461;28;7038;-75
2022/08/27 02:00:27;;;;;;;;;;;;;;;22.93;53.38;100584.09;4954989;28;6803;-75
2022/08/27 02:02:55;;;;;;;;;;;;;;;22.94;53.12;100579.75;4984759;28;6859;-75
2022/08/27 02:05:22;;;;;;;;;;;;;;;22.92;53.35;100584.97;4960980;28;7370;-75
2022/08/27 02:07:48;;;;;;;;;;;;;;;22.90;53.34;100578.88;4965883;28;7083;-75
2022/08/27 02:10:20;;;;;;;;;;;;;;;22.90;53.22;100589.31;4955141;28;7200;-75
2022/08/27 02:12:46;;;;;;;;;;;;;;;22.86;53.13;100579.75;4961922;28;6994;-75
2022/08/27 02:15:12;;;;;;;;;;;;;;;22.85;53.28;100584.09;4956730;28;7247;-75
2022/08/27 02:17:38;;;;;;;;;;;;;;;22.84;53.30;100587.59;4957078;28;7219;-75
2022/08/27 02:20:08;;;;;;;;;;;;;;;22.82;53.17;100589.34;4992282;28;6816;-75
2022/08/27 02:22:34;;;;;;;;;;;;;;;22.80;52.87;100578.03;4969638;28;6816;-75
2022/08/27 02:25:00;;;;;;;;;;;;;;;22.79;52.92;100583.22;4963617;28;6846;-75
2022/08/27 02:27:26;;;;;;;;;;;;;;;22.77;53.58;100575.38;4956366;28;7261;-75
2022/08/27 02:29:54;;;;;;;;;;;;;;;22.79;52.97;100580.63;4956045;28;6808;-75
2022/08/27 02:32:21;;;;;;;;;;;;;;;22.78;53.13;100584.97;4962421;28;6804;-75
2022/08/27 02:34:47;;;;;;;;;;;;;;;22.76;53.01;100578.88;4948163;28;7026;-75
2022/08/27 02:37:14;;;;;;;;;;;;;;;22.75;52.73;100579.75;4957337;28;7040;-75
2022/08/27 02:39:40;;;;;;;;;;;;;;;22.73;53.04;100578.88;4958159;28;7194;-75
2022/08/27 02:42:07;;;;;;;;;;;;;;;22.70;52.56;100581.50;4954911;28;6968;-76
2022/08/27 02:44:34;;;;;;;;;;;;;;;22.68;53.09;100578.88;4956249;28;6987;-75
2022/08/27 02:47:01;;;;;;;;;;;;;;;22.67;52.98;100578.88;4991095;28;8193;-76
2022/08/27 02:49:29;;;;;;;;;;;;;;;22.67;53.01;100574.53;4987345;28;6792;-76
2022/08/27 02:51:56;;;;;;;;;;;;;;;22.69;52.90;100566.66;4956419;28;7277;-76
2022/08/27 02:54:24;;;;;;;;;;;;;;;22.67;52.93;100569.31;4986152;28;6984;-75
2022/08/27 02:56:51;;;;;;;;;;;;;;;22.67;53.05;100563.19;4955711;28;6853;-75
2022/08/27 02:59:18;;;;;;;;;;;;;;;22.66;52.73;100561.47;4969644;28;6808;-75
2022/08/27 03:01:44;;;;;;;;;;;;;;;22.65;52.89;100564.94;4957704;28;6880;-75
2022/08/27 03:04:10;;;;;;;;;;;;;;;22.62;53.05;100568.41;4961192;28;7354;-75
2022/08/27 03:06:36;;;;;;;;;;;;;;;22.59;53.13;100565.81;4956590;28;6998;-75
2022/08/27 03:09:03;;;;;;;;;;;;;;;22.55;52.79;100567.53;4988447;28;7386;-75
2022/08/27 03:11:28;;;;;;;;;;;;;;;22.52;53.01;100559.72;4985289;28;7258;-76
2022/08/27 03:13:54;;;;;;;;;;;;;;;22.51;53.31;100563.19;4953866;28;8341;-75
2022/08/27 03:16:20;;;;;;;;;;;;;;;22.49;53.27;100559.69;4944299;28;6888;-75
2022/08/27 03:18:46;;;;;;;;;;;;;;;22.49;53.15;100562.31;4954204;28;7070;-75
2022/08/27 03:21:22;;;;;;;;;;;;;;;22.48;53.24;100560.53;4971950;28;6974;-75
2022/08/27 03:23:49;;;;;;;;;;;;;;;;;;4988177;28;6822;-75
2022/08/27 03:26:17;;;;;;;;;;;;;;;22.44;53.12;100558.81;4956999;28;6815;-75
2022/08/27 03:28:44;;;;;;;;;;;;;;;22.42;52.76;100557.94;4971041;28;6985;-75
2022/08/27 03:31:25;;;;;;;;;;;;;;;22.40;53.07;100557.03;4960860;28;8054;-75
2022/08/27 03:34:06;;;;;;;;;;;;;;;22.38;53.04;100561.38;4978421;28;7348;-75
2022/08/27 03:36:32;;;;;;;;;;;;;;;22.34;52.87;100556.16;4957839;28;7220;-75
2022/08/27 03:38:58;;;;;;;;;;;;;;;22.35;53.02;100559.63;4974170;28;6907;-75
2022/08/27 03:41:25;;;;;;;;;;;;;;;22.34;52.65;100556.16;4972806;28;7041;-75
2022/08/27 03:43:53;;;;;;;;;;;;;;;22.33;52.83;100567.50;4954046;28;7892;-75
2022/08/27 03:46:21;;;;;;;;;;;;;;;22.32;52.63;100565.75;4956683;28;6815;-75
2022/08/27 03:48:47;;;;;;;;;;;;;;;22.31;52.98;100560.50;4960864;28;6985;-75
2022/08/27 03:51:14;;;;;;;;;;;;;;;22.32;52.85;100568.34;4961556;28;8152;-75
2022/08/27 03:53:43;;;;;;;;;;;;;;;22.32;52.68;100567.47;4970177;28;7013;-75
2022/08/27 03:56:09;;;;;;;;;;;;;;;22.33;52.64;100571.81;4969340;28;7001;-75
2022/08/27 03:58:36;;;;;;;;;;;;;;;22.32;52.71;100570.09;4962950;28;7517;-75
2022/08/27 04:01:04;;;;;;;;;;;;;;;22.32;53.02;100572.69;4948908;28;6828;-75
2022/08/27 04:03:31;;;;;;;;;;;;;;;22.32;52.37;100575.31;4956280;28;6968;-75
2022/08/27 04:05:58;;;;;;;;;;;;;;;22.32;52.87;100576.19;4985849;28;6788;-75
2022/08/27 04:08:26;;;;;;;;;;;;;;;22.34;52.45;100570.94;4986589;28;6959;-75
2022/08/27 04:10:53;;;;;;;;;;;;;;;22.34;52.17;100577.06;4969423;28;6868;-75
2022/08/27 04:13:22;;;;;;;;;;;;;;;22.34;52.43;100570.94;4988987;28;8327;-75
2022/08/27 04:15:50;;;;;;;;;;;;;;;22.32;52.54;100567.47;4951465;28;7126;-75
2022/08/27 04:18:16;;;;;;;;;;;;;;;22.31;52.39;100570.94;4952063;28;8878;-75
2022/08/27 04:20:51;;;;;;;;;;;;;;;22.29;52.16;100568.34;4973134;28;8737;-75
2022/08/27 04:23:17;;;;;;;;;;;;;;;22.27;52.38;100574.44;4963127;28;6808;-75
2022/08/27 04:25:44;;;;;;;;;;;;;;;22.27;52.57;100582.28;4961390;28;6962;-75
2022/08/27 04:28:12;;;;;;;;;;;;;;;22.24;52.52;100579.63;4957996;28;8900;-75
2022/08/27 04:30:44;;;;;;;;;;;;;;;22.23;52.25;100586.59;4956775;28;6812;-76
2022/08/27 04:33:12;;;;;;;;;;;;;;;22.24;52.64;100593.56;4955823;28;6947;-75
2022/08/27 04:35:37;;;;;;;;;;;;;;;22.23;52.44;100584.00;4961527;28;6800;-75
2022/08/27 04:38:04;;;;;;;;;;;;;;;22.22;52.47;100587.47;4964668;28;8098;-75
2022/08/27 04:43:15;;;;;;;;;;;;;;;22.25;52.57;100589.19;4958687;28;6800;-75
2022/08/27 04:45:47;;;;;;;;;;;;;;;22.26;52.50;100593.56;4954784;28;7215;-76
2022/08/27 04:48:17;;;;;;;;;;;;;;;22.26;52.29;100590.94;4993341;28;7007;-76
2022/08/27 04:50:47;;;;;;;;;;;;;;;22.26;52.15;100594.44;4982557;28;7032;-76
2022/08/27 04:53:16;;;;;;;;;;;;;;;22.24;52.10;100596.19;4983328;28;6977;-75
2022/08/27 04:55:49;;;;;;;;;;;;;;;22.23;52.45;100594.44;4971242;28;6963;-75
2022/08/27 04:58:17;;;;;;;;;;;;;;;22.20;52.23;100595.28;4963998;28;7002;-76
2022/08/27 05:00:55;;;;;;;;;;;;;;;22.18;52.40;100597.03;4968170;28;6990;-76
2022/08/27 05:03:22;;;;;;;;;;;;;;;22.16;52.30;100597.91;4967887;28;6977;-75
2022/08/27 05:05:50;;;;;;;;;;;;;;;22.16;52.31;100601.38;4973291;28;7282;-75
2022/08/27 05:08:16;;;;;;;;;;;;;;;22.16;52.16;100597.91;4975681;28;7757;-75
2022/08/27 05:10:45;;;;;;;;;;;;;;;22.15;51.85;100597.00;4968026;28;7182;-75
2022/08/27 05:13:11;;;;;;;;;;;;;;;22.15;51.85;100601.38;4959509;28;7056;-75
2022/08/27 05:15:38;;;;;;;;;;;;;;;22.13;51.51;100596.13;4964285;28;7126;-75
2022/08/27 05:18:07;;;;;;;;;;;;;;;22.12;51.83;100598.75;4956691;28;7023;-76
2022/08/27 05:20:41;;;;;;;;;;;;;;;22.12;51.85;100606.59;4967577;28;7353;-75
2022/08/27 05:23:07;;;;;;;;;;;;;;;22.12;51.70;100602.22;4954105;28;7360;-75
2022/08/27 05:25:41;;;;;;;;;;;;;;;22.14;51.90;100605.72;4952936;28;6860;-75
2022/08/27 05:28:09;;;;;;;;;;;;;;;22.16;51.93;100597.91;4983156;28;7388;-75
2022/08/27 05:30:45;;;;;;;;;;;;;;;22.18;51.89;100607.47;4956802;28;6799;-76
2022/08/27 05:33:13;;;;;;;;;;;;;;;22.19;51.45;100603.09;4968348;28;7000;-75
2022/08/27 05:35:46;;;;;;;;;;;;;;;22.17;51.48;100610.97;4953265;28;7335;-75
2022/08/27 05:38:12;;;;;;;;;;;;;;;22.18;51.53;100607.47;4989332;28;6868;-75
2022/08/27 05:40:40;;;;;;;;;;;;;;;22.18;51.71;100609.19;4971547;28;7050;-75
2022/08/27 05:43:06;;;;;;;;;;;;;;;22.16;51.33;100606.59;4953979;28;6991;-75
2022/08/27 05:45:40;;;;;;;;;;;;;;;22.13;51.72;100614.41;4954119;28;7336;-75
2022/08/27 05:48:05;;;;;;;;;;;;;;;22.11;51.64;100615.25;4949786;28;6808;-76
2022/08/27 05:50:31;;;;;;;;;;;;;;;22.09;51.65;100610.06;4956854;28;7227;-76
2022/08/27 05:52:57;;;;;;;;;;;;;;;22.11;51.37;100610.03;4956203;28;7026;-76
2022/08/27 05:55:22;;;;;;;;;;;;;;;22.12;51.37;100617.03;4954898;28;7001;-76
2022/08/27 05:57:48;;;;;;;;;;;;;;;22.11;51.44;100617.88;4961615;28;7184;-76
2022/08/27 06:02:58;;;;;;;;;;;;;;;22.08;51.55;100613.53;4957588;28;6821;-75
2022/08/27 06:05:24;;;;;;;;;;;;;;;22.06;51.52;100610.91;4957890;28;7109;-76
2022/08/27 06:07:49;;;;;;;;;;;;;;;22.08;51.48;100616.16;4959621;28;6935;-76
2022/08/27 06:10:15;;;;;;;;;;;;;;;22.09;51.68;100617.88;4955998;28;6766;-76
2022/08/27 06:12:41;;;;;;;;;;;;;;;22.10;51.73;100614.41;4954523;28;6926;-75
2022/08/27 06:15:07;;;;;;;;;;;;;;;22.12;51.89;100611.81;4945193;28;7803;-76
2022/08/27 06:17:33;;;;;;;;;;;;;;;22.12;51.71;100612.66;4952356;28;6768;-76
2022/08/27 06:19:58;;;;;;;;;;;;;;;22.15;51.62;100614.41;4980000;28;7043;-76
2022/08/27 06:22:24;;;;;;;;;;;;;;;22.14;51.88;100615.28;4962307;28;6942;-76
2022/08/27 06:24:49;;;;;;;;;;;;;;;22.14;51.79;100617.91;4955283;28;7098;-75
2022/08/27 06:27:18;;;;;;;;;;;;;;;22.12;51.93;100611.81;4982723;28;6934;-75
2022/08/27 06:29:44;;;;;;;;;;;;;;;22.11;51.65;100613.53;4955128;28;7407;-75
2022/08/27 06:32:13;;;;;;;;;;;;;;;22.13;51.62;100613.56;4952438;28;7837;-75
2022/08/27 06:34:39;;;;;;;;;;;;;;;22.14;52.31;100612.69;4972218;28;6931;-75
2022/08/27 06:37:06;;;;;;;;;;;;;;;22.16;51.85;100616.16;4968732;28;7275;-75
2022/08/27 06:39:32;;;;;;;;;;;;;;;22.15;51.94;100614.41;4952851;28;7677;-76
2022/08/27 06:41:58;;;;;;;;;;;;;;;22.16;51.62;100611.84;4971121;28;7138;-76
2022/08/27 06:44:24;;;;;;;;;;;;;;;22.19;52.12;100617.03;4981389;28;7006;-76
2022/08/27 06:46:50;;;;;;;;;;;;;;;22.23;52.03;100619.66;4963758;28;7276;-76
2022/08/27 06:49:17;;;;;;;;;;;;;;;22.28;52.15;100610.97;4957535;28;8299;-77
2022/08/27 06:51:46;;;;;;;;;;;;;;;22.33;51.85;100609.25;4959712;28;7323;-76
2022/08/27 06:54:14;;;;;;;;;;;;;;;22.37;51.93;100617.09;4942903;28;6884;-76
2022/08/27 06:56:43;;;;;;;;;;;;;;;22.40;52.05;100617.97;4951290;28;7227;-76
2022/08/27 06:59:13;;;;;;;;;;;;;;;22.44;51.57;100618.84;4979456;28;7071;-76
2022/08/27 07:01:43;;;;;;;;;;;;;;;22.46;51.27;100622.34;4949119;28;7877;-76
2022/08/27 07:04:16;;;;;;;;;;;;;;;22.47;51.18;100618.84;4960012;28;6785;-76
2022/08/27 07:06:42;;;;;;;;;;;;;;;22.47;51.41;100611.91;4949400;28;7016;-77
2022/08/27 07:09:09;;;;;;;;;;;;;;;22.49;51.47;100614.53;4944890;28;7084;-76
2022/08/27 07:11:37;;;;;;;;;;;;;;;22.50;51.33;100618.88;4963219;28;7075;-76
2022/08/27 07:14:05;;;;;;;;;;;;;;;22.50;51.04;100620.63;4948625;28;6969;-75
2022/08/27 07:16:31;;;;;;;;;;;;;;;22.50;51.29;100616.28;4953566;28;6820;-76
2022/08/27 07:19:00;;;;;;;;;;;;;;;22.48;50.75;100616.25;4951302;28;7182;-76
2022/08/27 07:21:28;;;;;;;;;;;;;;;22.50;50.81;100612.81;4959365;28;7018;-76
2022/08/27 07:23:58;;;;;;;;;;;;;;;22.50;50.42;100623.25;4929482;28;6888;-76
2022/08/27 07:26:24;;;;;;;;;;;;;;;;;;4951087;28;6832;-75
2022/08/27 07:28:52;;;;;;;;;;;;;;;22.47;50.44;100624.06;4947232;28;8085;-76
2022/08/27 07:31:21;;;;;;;;;;;;;;;22.44;50.50;100622.31;4952917;28;6985;-76
2022/08/27 07:33:48;;;;;;;;;;;;;;;22.44;50.41;100627.53;4966221;28;7280;-75
2022/08/27 07:36:14;;;;;;;;;;;;;;;22.43;50.50;100633.63;4981043;28;7768;-76
2022/08/27 07:38:40;;;;;;;;;;;;;;;22.43;50.69;100638.84;4953712;28;6760;-76
2022/08/27 07:41:10;;;;;;;;;;;;;;;22.43;50.43;100636.25;4940309;28;7064;-76
2022/08/27 07:46:22;;;;;;;;;;;;;;;22.48;50.24;100641.47;4948815;28;7944;-76
2022/08/27 07:48:49;;;;;;;;;;;;;;;22.51;50.02;100643.28;4959122;28;6987;-76
2022/08/27 07:51:22;;;;;;;;;;;;;;;22.53;50.33;100639.81;4949609;28;6773;-76
2022/08/27 07:53:48;;;;;;;;;;;;;;;22.56;49.92;100645.03;4939463;28;6822;-75
2022/08/27 07:56:15;;;;;;;;;;;;;;;22.58;49.87;100643.28;4939271;28;7112;-75
2022/08/27 07:58:41;;;;;;;;;;;;;;;22.60;49.88;100646.78;4978728;28;7508;-76
2022/08/27 08:01:09;;;;;;;;;;;;;;;22.59;49.62;100655.47;4950846;28;6792;-76
2022/08/27 08:03:35;;;;;;;;;;;;;;;22.58;49.73;100650.25;4953592;28;6820;-76
2022/08/27 08:06:11;;;;;;;;;;;;;;;22.55;49.74;100656.34;4956183;28;7630;-76
2022/08/27 08:08:39;;;;;;;;;;;;;;;22.54;49.82;100659.81;5022467;23;7630;-77
2022/08/27 08:11:08;;;;;;;;;;;;;;;22.54;50.05;100656.31;4934298;28;9647;-77
2022/08/27 08:13:34;;;;;;;;;;;;;;;22.48;50.37;100657.16;4950970;28;7003;-78
2022/08/27 08:16:00;;;;;;;;;;;;;;;22.42;49.90;100658.00;4969833;28;7147;-75
2022/08/27 08:18:27;;;;;;;;;;;;;;;22.36;50.37;100658.00;4966911;28;6967;-75
2022/08/27 08:21:00;;;;;;;;;;;;;;;22.30;50.38;100669.28;4969578;28;6820;-75
2022/08/27 08:23:26;;;;;;;;;;;;;;;22.22;51.02;100670.13;4966889;28;7188;-75
2022/08/27 08:25:52;;;;;;;;;;;;;;;22.11;51.00;100673.56;4970284;28;6884;-75
2022/08/27 08:28:18;;;;;;;;;;;;;;;22.02;51.29;100669.19;4971604;28;6803;-77
2022/08/27 08:30:45;;;;;;;;;;;;;;;21.93;51.75;100674.34;4970844;28;7025;-77
2022/08/27 08:33:12;;;;;;;;;;;;;;;21.88;52.04;100683.88;4956088;28;8421;-75
2022/08/27 08:35:39;;;;;;;;;;;;;;;21.83;52.15;100670.81;4968335;28;8991;-75
2022/08/27 08:38:05;;;;;;;;;;;;;;;21.79;52.51;100676.88;4969314;28;6967;-74
2022/08/27 08:40:41;;;;;;;;;;;;;;;21.74;52.84;100681.19;4967908;28;6800;-75
2022/08/27 08:43:32;;;;;;;;;;;;;;;21.70;53.05;100687.25;4981254;28;7299;-75
2022/08/27 08:46:23;;;;;;;;;;;;;;;21.65;52.93;100685.44;4977110;28;7189;-75
2022/08/27 08:48:58;;;;;;;;;;;;;;;21.56;52.88;100694.97;4963722;28;7787;-75
2022/08/27 08:51:35;;;;;;;;;;;;;;;21.48;53.39;100695.75;4975048;28;6808;-74
2022/08/27 08:54:20;;;;;;;;;;;;;;;21.41;53.68;100700.94;4980679;28;7685;-77
2022/08/27 08:57:02;;;;;;;;;;;;;;;21.35;53.80;100702.59;4993067;28;6956;-75
2022/08/27 08:59:43;;;;;;;;;;;;;;;21.31;54.01;100699.97;4989414;28;6916;-75
2022/08/27 09:02:14;;;;;;;;;;;;;;;21.28;54.08;100694.72;4953835;28;7159;-75
2022/08/27 09:04:42;;;;;;;;;;;;;;;21.26;54.63;100704.28;4960085;28;6809;-75
2022/08/27 09:07:34;;;;;;;;;;;;;;;21.25;54.46;100705.16;4975806;28;7219;-76
2022/08/27 09:10:40;;;;;;;;;;;;;;;21.23;54.62;100708.59;4977961;28;6815;-75
2022/08/27 09:13:23;;;;;;;;;;;;;;;21.23;54.79;100708.59;4949105;28;7199;-76
2022/08/27 09:15:55;;;;;;;;;;;;;;;21.24;55.03;100709.47;4978709;28;7278;-75
2022/08/27 09:18:21;;;;;;;;;;;;;;;21.24;55.14;100704.25;4980068;28;6888;-75
2022/08/27 09:20:54;;;;;;;;;;;;;;;21.27;55.31;100712.09;4966699;28;8944;-75
2022/08/27 09:23:37;;;;;;;;;;;;;;;21.30;55.20;100706.94;4963998;28;7007;-75
2022/08/27 09:26:03;;;;;;;;;;;;;;;21.31;55.58;100713.00;4965449;28;7009;-75
2022/08/27 09:31:21;;;;;;;;;;;;;;;21.34;55.76;100707.81;4964141;28;7221;-75
2022/08/27 09:33:47;;;;;;;;;;;;;;;21.38;56.05;100701.78;4980074;28;7240;-75
2022/08/27 09:36:15;;;;;;;;;;;;;;;21.44;56.14;100704.44;4979947;28;7819;-76
2022/08/27 09:39:04;;;;;;;;;;;;;;;21.51;56.09;100714.03;4981570;28;6847;-75
2022/08/27 09:41:40;;;;;;;;;;;;;;;21.59;55.76;100718.44;4983104;28;7078;-75
2022/08/27 09:44:11;;;;;;;;;;;;;;;21.64;56.09;100717.59;4965583;28;6844;-75
2022/08/27 09:46:37;;;;;;;;;;;;;;;21.71;56.02;100710.72;4979413;28;7026;-75
2022/08/27 09:49:16;;;;;;;;;;;;;;;21.76;55.90;100719.47;4979655;28;7500;-76
2022/08/27 09:51:46;;;;;;;;;;;;;;;21.80;56.04;100722.09;4966535;28;6800;-76
2022/08/27 09:54:46;;;;;;;;;;;;;;;21.83;55.78;100711.69;4980189;28;7205;-75
2022/08/27 09:57:30;;;;;;;;;;;;;;;21.84;56.16;100716.91;4978440;28;6987;-75
2022/08/27 09:59:55;;;;;;;;;;;;;;;21.89;56.23;100722.16;4979833;28;7301;-75
2022/08/27 10:02:24;;;;;;;;;;;;;;;21.92;55.88;100724.75;4961462;28;6970;-76
2022/08/27 10:04:55;;;;;;;;;;;;;;;21.94;55.96;100714.34;4983453;28;6978;-75
2022/08/27 10:07:55;;;;;;;;;;;;;;;21.97;55.92;100717.84;4957025;28;7084;-75
2022/08/27 10:10:37;;;;;;;;;;;;;;;22.01;55.98;100724.81;4980319;28;6800;-75
2022/08/27 10:13:47;;;;;;;;;;;;;;;22.06;55.81;100712.69;4969256;28;6986;-75
2022/08/27 10:16:39;;;;;;;;;;;;;;;22.17;55.93;100711.88;4977632;28;7209;-75
2022/08/27 10:19:42;;;;;;;;;;;;;;;22.30;55.57;100711.03;4979707;28;6816;-75
2022/08/27 10:22:52;;;;;;;;;;;;;;;22.40;55.46;100701.53;4977492;28;7085;-75
2022/08/27 10:25:38;;;;;;;;;;;;;;;22.52;55.03;100705.97;4964022;28;7976;-75
2022/08/27 10:28:25;;;;;;;;;;;;;;;22.66;54.78;100699.91;4971099;28;8529;-75
2022/08/27 10:31:25;;;;;;;;;;;;;;;22.80;54.80;100699.94;4981257;28;6831;-75
2022/08/27 10:34:19;;;;;;;;;;;;;;;23.01;54.63;100696.50;4984472;28;6983;-75
2022/08/27 10:37:23;;;;;;;;;;;;;;;23.23;54.09;100699.13;4977182;28;7010;-75
2022/08/27 10:40:22;;;;;;;;;;;;;;;23.39;54.14;100692.16;4980230;28;7265;-75
2022/08/27 10:43:22;;;;;;;;;;;;;;;23.56;53.71;100694.75;4983752;28;6796;-75
2022/08/27 10:46:19;;;;;;;;;;;;;;;23.73;53.20;100689.53;4961172;28;7746;-75
2022/08/27 10:49:13;;;;;;;;;;;;;;;23.90;52.88;100694.72;4975468;28;7488;-75
2022/08/27 10:52:18;;;;;;;;;;;;;;;24.05;51.80;100692.97;4977973;28;6811;-75
2022/08/27 10:55:11;;;;;;;;;;;;;;;24.19;52.07;100693.78;4982265;28;7510;-75
2022/08/27 10:58:34;;;;;;;;;;;;;;;24.35;51.67;100685.88;4976659;28;7228;-75
2022/08/27 11:01:26;;;;;;;;;;;;;;;24.50;51.39;100691.00;4965356;28;7858;-75
2022/08/27 11:04:20;;;;;;;;;;;;;;;24.67;50.17;100695.28;4980241;28;7193;-75
2022/08/27 11:07:04;;;;;;;;;;;;;;;24.82;50.33;100695.25;4978941;28;6975;-75
2022/08/27 11:09:39;;;;;;;;;;;;;;;24.98;49.35;100689.88;4979028;28;10864;-75
2022/08/27 11:12:14;;;;;;;;;;;;;;;25.07;48.98;100683.69;4979022;28;6970;-75
2022/08/27 11:15:11;;;;;;;;;;;;;;;25.18;48.83;100687.09;4976288;28;6873;-75
2022/08/27 11:18:10;;;;;;;;;;;;;;;25.31;48.53;100684.38;4977996;28;7046;-75
2022/08/27 11:20:52;;;;;;;;;;;;;;;25.40;47.72;100675.53;4977376;28;7118;-75
2022/08/27 11:23:56;;;;;;;;;;;;;;;25.51;47.62;100673.75;4975472;28;6825;-75
2022/08/27 11:26:22;;;;;;;;;;;;;;;25.60;46.97;100668.41;4979908;28;6895;-75
2022/08/27 11:29:00;;;;;;;;;;;;;;;25.69;47.20;100669.16;4966081;28;9038;-75
2022/08/27 11:31:55;;;;;;;;;;;;;;;25.76;46.79;100674.34;4952038;28;7297;-76
2022/08/27 11:34:40;;;;;;;;;;;;;;;25.87;46.54;100673.34;4966053;28;6999;-76
2022/08/27 11:37:25;;;;;;;;;;;;;;;25.95;46.10;100665.38;4975604;28;6804;-76
2022/08/27 11:40:36;;;;;;;;;;;;;;;25.96;45.36;100669.75;4977339;28;7448;-75
2022/08/27 11:43:12;;;;;;;;;;;;;;;25.90;45.21;100668.94;4981676;28;7081;-76
2022/08/27 11:46:02;;;;;;;;;;;;;;;25.89;44.63;100668.94;4966511;28;7392;-75
2022/08/27 11:49:00;;;;;;;;;;;;;;;25.90;44.35;100666.31;4962594;28;7101;-75
2022/08/27 11:51:37;;;;;;;;;;;;;;;25.97;44.93;100672.34;4966291;28;7020;-75
2022/08/27 11:54:21;;;;;;;;;;;;;;;26.10;44.85;100667.84;4956554;28;6895;-78
2022/08/27 11:56:46;;;;;;;;;;;;;;;26.22;44.29;100665.97;4974331;28;7189;-77
2022/08/27 11:59:31;;;;;;;;;;;;;;;26.29;43.68;100668.47;4976917;28;6792;-75
2022/08/27 12:02:35;;;;;;;;;;;;;;;26.32;43.21;100664.94;4980637;28;7193;-75
2022/08/27 12:05:18;;;;;;;;;;;;;;;26.34;43.25;100665.78;4937555;28;7864;-75
2022/08/27 12:07:50;;;;;;;;;;;;;;;26.43;43.18;100657.78;4938289;28;7264;-75
2022/08/27 12:10:40;;;;;;;;;;;;;;;26.55;43.26;100663.75;4951015;28;6977;-75
2022/08/27 12:13:34;;;;;;;;;;;;;;;26.75;43.12;100661.72;4977932;28;6907;-74
2022/08/27 12:16:37;;;;;;;;;;;;;;;26.91;42.41;100664.13;4976963;28;6812;-74
2022/08/27 12:19:30;;;;;;;;;;;;;;;26.96;42.29;100662.31;4978481;28;7153;-75
2022/08/27 12:22:08;;;;;;;;;;;;;;;27.04;42.48;100656.91;4972995;28;7204;-74
2022/08/27 12:24:52;;;;;;;;;;;;;;;27.15;42.22;100660.22;4979125;28;7122;-75
2022/08/27 12:27:21;;;;;;;;;;;;;;;27.23;41.78;100662.72;4977781;28;8513;-74
2022/08/27 12:29:52;;;;;;;;;;;;;;;27.28;41.72;100660.88;4960005;28;7245;-75
2022/08/27 12:32:45;;;;;;;;;;;;;;;27.34;41.33;100662.53;4978488;28;7292;-75
2022/08/27 12:35:39;;;;;;;;;;;;;;;27.35;41.13;100658.16;4962126;28;6808;-75
2022/08/27 12:38:14;;;;;;;;;;;;;;;27.42;41.38;100654.50;4975759;28;6816;-75
2022/08/27 12:40:52;;;;;;;;;;;;;;;27.52;41.40;100653.44;4961403;28;7011;-75
2022/08/27 12:43:28;;;;;;;;;;;;;;;27.63;40.70;100652.41;4969072;28;7006;-75
2022/08/27 12:46:14;;;;;;;;;;;;;;;27.61;40.32;100649.81;4963740;28;7388;-74
2022/08/27 12:48:58;;;;;;;;;;;;;;;27.56;39.86;100644.63;4967808;28;7346;-74
2022/08/27 12:51:32;;;;;;;;;;;;;;;27.53;39.89;100647.28;4961704;28;7284;-74
2022/08/27 12:54:55;;;;;;;;;;;;;;;27.50;39.46;100644.69;4975565;28;6820;-74
2022/08/27 12:57:27;;;;;;;;;;;;;;;27.49;39.65;100642.97;4980524;28;7236;-74
2022/08/27 13:00:34;;;;;;;;;;;;;;;27.57;40.13;100643.72;4978398;28;6828;-74
2022/08/27 13:03:42;;;;;;;;;;;;;;;27.62;39.88;100640.13;4972632;28;11298;-74
2022/08/27 13:06:31;;;;;;;;;;;;;;;27.62;39.60;100634.84;4961285;28;6800;-74
2022/08/27 13:09:06;;;;;;;;;;;;;;;27.65;40.06;100642.72;4977611;28;6962;-75
2022/08/27 13:11:43;;;;;;;;;;;;;;;27.67;39.52;100644.44;4984385;28;6832;-75
2022/08/27 13:14:16;;;;;;;;;;;;;;;27.64;39.15;100641.84;4980662;28;7071;-75
2022/08/27 13:17:01;;;;;;;;;;;;;;;27.55;38.81;100637.63;4959995;28;8077;-75
2022/08/27 13:19:56;;;;;;;;;;;;;;;27.49;38.91;100634.22;4960931;28;6990;-75
2022/08/27 13:22:38;;;;;;;;;;;;;;;27.51;39.64;100638.53;4966652;28;6816;-74
2022/08/27 13:25:20;;;;;;;;;;;;;;;27.47;38.93;100638.63;4962910;28;7347;-75
2022/08/27 13:27:58;;;;;;;;;;;;;;;27.41;38.74;100635.22;4980486;28;8264;-74
2022/08/27 13:30:27;;;;;;;;;;;;;;;27.39;38.88;100629.13;4976653;28;7792;-74
2022/08/27 13:32:56;;;;;;;;;;;;;;;27.40;38.78;100633.50;4973168;28;7857;-74
2022/08/27 13:35:23;;;;;;;;;;;;;;;27.47;38.95;100639.50;4982596;28;6812;-74
2022/08/27 13:37:52;;;;;;;;;;;;;;;27.51;38.73;100637.69;4985506;28;7101;-75